createdAt,value
2018-05-16T00:00:29.072Z,0.00
2018-05-16T00:01:29.216Z,0.00
2018-05-16T00:02:40.070Z,0.00
2018-05-16T00:03:29.465Z,0.00
2018-05-16T00:04:29.604Z,0.00
2018-05-16T00:05:29.741Z,0.00
2018-05-16T00:06:29.887Z,0.00
2018-05-16T00:07:30.022Z,0.00
2018-05-16T00:08:30.160Z,0.00
2018-05-16T00:09:30.309Z,0.00
2018-05-16T00:10:30.446Z,0.00
2018-05-16T00:11:30.587Z,0.00
2018-05-16T00:12:30.730Z,0.00
2018-05-16T00:13:30.863Z,0.00
2018-05-16T00:14:31.007Z,0.00
2018-05-16T00:15:31.147Z,0.00
2018-05-16T00:16:31.286Z,0.00
2018-05-16T00:17:31.426Z,0.00
2018-05-16T00:18:31.561Z,0.00
2018-05-16T00:19:31.701Z,0.00
2018-05-16T00:20:31.837Z,0.00
2018-05-16T00:21:31.970Z,0.00
2018-05-16T00:22:32.103Z,0.00
2018-05-16T00:23:32.268Z,0.00
2018-05-16T00:24:32.387Z,0.00
2018-05-16T00:25:32.528Z,0.00
2018-05-16T00:26:32.668Z,0.00
2018-05-16T00:27:32.807Z,0.00
2018-05-16T00:28:32.946Z,0.00
2018-05-16T00:29:33.089Z,0.00
2018-05-16T00:30:33.228Z,0.00
2018-05-16T00:31:33.362Z,0.00
2018-05-16T00:32:33.507Z,0.00
2018-05-16T00:33:33.662Z,0.00
2018-05-16T00:34:33.804Z,0.00
2018-05-16T00:35:33.939Z,0.00
2018-05-16T00:36:34.101Z,0.00
2018-05-16T00:37:34.231Z,0.00
2018-05-16T00:38:34.369Z,0.00
2018-05-16T00:39:34.518Z,0.00
2018-05-16T00:40:34.646Z,0.00
2018-05-16T00:41:34.784Z,0.00
2018-05-16T00:42:34.988Z,0.00
2018-05-16T00:43:35.032Z,0.00
2018-05-16T00:44:35.166Z,0.00
2018-05-16T00:45:35.315Z,0.00
2018-05-16T00:46:35.454Z,0.00
2018-05-16T00:47:35.609Z,0.00
2018-05-16T00:48:35.744Z,0.00
2018-05-16T00:49:35.891Z,0.00
2018-05-16T00:50:36.024Z,0.00
2018-05-16T00:51:36.189Z,0.00
2018-05-16T00:52:36.324Z,0.00
2018-05-16T00:53:36.467Z,0.00
2018-05-16T00:54:36.604Z,0.00
2018-05-16T00:55:36.745Z,0.00
2018-05-16T00:56:36.886Z,0.00
2018-05-16T00:57:37.025Z,0.00
2018-05-16T00:58:37.203Z,0.00
2018-05-16T00:59:37.341Z,0.00
2018-05-16T01:00:37.481Z,0.00
2018-05-16T01:01:37.619Z,0.00
2018-05-16T01:02:37.788Z,0.00
2018-05-16T01:03:37.936Z,0.00
2018-05-16T01:04:38.096Z,0.00
2018-05-16T01:05:38.210Z,0.00
2018-05-16T01:06:38.381Z,0.00
2018-05-16T01:07:38.517Z,0.00
2018-05-16T01:08:38.661Z,0.00
2018-05-16T01:09:38.792Z,0.00
2018-05-16T01:10:38.936Z,0.00
2018-05-16T01:11:39.068Z,0.00
2018-05-16T01:12:39.200Z,0.00
2018-05-16T01:13:39.336Z,0.00
2018-05-16T01:14:39.505Z,0.00
2018-05-16T01:15:39.632Z,0.00
2018-05-16T01:16:39.770Z,0.00
2018-05-16T01:17:39.938Z,0.00
2018-05-16T01:18:40.076Z,0.00
2018-05-16T01:19:40.206Z,0.00
2018-05-16T01:20:40.345Z,0.00
2018-05-16T01:21:40.515Z,0.00
2018-05-16T01:22:40.651Z,0.00
2018-05-16T01:23:40.794Z,0.00
2018-05-16T01:24:40.931Z,0.00
2018-05-16T01:25:41.099Z,0.00
2018-05-16T01:26:41.230Z,0.00
2018-05-16T01:27:41.373Z,0.00
2018-05-16T01:28:41.505Z,0.00
2018-05-16T01:29:41.704Z,0.00
2018-05-16T01:30:41.799Z,0.00
2018-05-16T01:31:41.933Z,0.00
2018-05-16T01:32:42.073Z,0.00
2018-05-16T01:33:42.235Z,0.00
2018-05-16T01:34:42.367Z,0.00
2018-05-16T01:35:42.510Z,0.00
2018-05-16T01:36:42.655Z,0.00
2018-05-16T01:37:42.807Z,0.00
2018-05-16T01:38:42.945Z,0.00
2018-05-16T01:39:43.084Z,0.00
2018-05-16T01:40:43.219Z,0.00
2018-05-16T01:41:43.372Z,0.00
2018-05-16T01:42:43.509Z,0.00
2018-05-16T01:43:43.648Z,0.00
2018-05-16T01:44:43.786Z,0.00
2018-05-16T01:45:43.962Z,0.00
2018-05-16T01:46:44.096Z,0.00
2018-05-16T01:47:44.241Z,0.00
2018-05-16T01:48:44.403Z,0.00
2018-05-16T01:49:44.565Z,0.00
2018-05-16T01:50:44.700Z,0.00
2018-05-16T01:51:44.839Z,0.00
2018-05-16T01:52:44.985Z,0.00
2018-05-16T01:53:45.123Z,0.00
2018-05-16T01:54:45.262Z,0.00
2018-05-16T01:55:45.401Z,0.00
2018-05-16T01:56:45.571Z,0.00
2018-05-16T01:57:45.706Z,0.00
2018-05-16T01:58:45.849Z,0.00
2018-05-16T01:59:45.992Z,0.00
2018-05-16T02:00:46.151Z,0.00
2018-05-16T02:01:46.288Z,0.00
2018-05-16T02:02:46.423Z,0.00
2018-05-16T02:03:46.577Z,0.00
2018-05-16T02:04:46.712Z,0.00
2018-05-16T02:05:46.900Z,0.00
2018-05-16T02:06:47.041Z,0.00
2018-05-16T02:07:47.226Z,0.00
2018-05-16T02:08:47.332Z,0.00
2018-05-16T02:09:47.498Z,0.00
2018-05-16T02:10:47.662Z,0.00
2018-05-16T02:11:47.831Z,0.00
2018-05-16T02:12:47.940Z,0.00
2018-05-16T02:13:48.076Z,0.00
2018-05-16T02:14:48.213Z,0.00
2018-05-16T02:15:48.376Z,0.00
2018-05-16T02:16:48.505Z,0.00
2018-05-16T02:17:48.651Z,0.00
2018-05-16T02:18:48.800Z,0.00
2018-05-16T02:19:48.976Z,0.00
2018-05-16T02:20:49.102Z,0.00
2018-05-16T02:21:49.247Z,0.00
2018-05-16T02:22:49.410Z,0.00
2018-05-16T02:23:49.540Z,0.00
2018-05-16T02:24:49.679Z,0.00
2018-05-16T02:25:49.819Z,0.00
2018-05-16T02:26:49.950Z,0.00
2018-05-16T02:27:50.089Z,0.00
2018-05-16T02:28:50.220Z,0.00
2018-05-16T02:29:50.368Z,0.00
2018-05-16T02:30:50.516Z,0.00
2018-05-16T02:31:50.649Z,0.00
2018-05-16T02:32:50.801Z,0.00
2018-05-16T02:33:50.931Z,0.00
2018-05-16T02:34:51.121Z,0.00
2018-05-16T02:35:51.976Z,0.00
2018-05-16T02:36:51.371Z,0.00
2018-05-16T02:37:51.511Z,0.00
2018-05-16T02:38:51.677Z,0.00
2018-05-16T02:39:51.810Z,0.00
2018-05-16T02:40:51.949Z,0.00
2018-05-16T02:41:52.106Z,0.00
2018-05-16T02:42:52.241Z,0.00
2018-05-16T02:43:52.382Z,0.00
2018-05-16T02:44:52.979Z,0.00
2018-05-16T02:45:52.621Z,0.00
2018-05-16T02:46:52.761Z,0.00
2018-05-16T02:47:52.903Z,0.00
2018-05-16T02:48:53.039Z,0.00
2018-05-16T02:49:53.210Z,0.00
2018-05-16T02:50:53.345Z,0.00
2018-05-16T02:51:53.476Z,0.00
2018-05-16T02:52:53.656Z,0.00
2018-05-16T02:53:53.782Z,0.00
2018-05-16T02:54:53.924Z,0.00
2018-05-16T02:55:54.101Z,0.00
2018-05-16T02:56:54.219Z,0.00
2018-05-16T02:57:54.356Z,0.00
2018-05-16T02:58:54.507Z,0.00
2018-05-16T02:59:54.647Z,0.00
2018-05-16T03:00:54.782Z,0.00
2018-05-16T03:01:54.913Z,0.00
2018-05-16T03:02:55.060Z,0.00
2018-05-16T03:03:55.194Z,0.00
2018-05-16T03:04:55.336Z,0.00
2018-05-16T03:05:55.470Z,0.00
2018-05-16T03:06:55.692Z,0.00
2018-05-16T03:07:55.796Z,0.00
2018-05-16T03:08:55.811Z,0.00
2018-05-16T03:09:55.945Z,0.00
2018-05-16T03:10:56.087Z,0.00
2018-05-16T03:11:56.246Z,0.00
2018-05-16T03:12:56.365Z,0.00
2018-05-16T03:13:56.514Z,0.00
2018-05-16T03:14:56.667Z,0.00
2018-05-16T03:15:56.808Z,0.00
2018-05-16T03:16:56.966Z,0.00
2018-05-16T03:17:57.107Z,0.00
2018-05-16T03:18:57.243Z,0.00
2018-05-16T03:19:57.387Z,0.00
2018-05-16T03:20:57.530Z,0.00
2018-05-16T03:21:57.666Z,0.00
2018-05-16T03:22:57.805Z,0.00
2018-05-16T03:23:57.942Z,0.00
2018-05-16T03:24:58.082Z,0.00
2018-05-16T03:25:58.207Z,0.00
2018-05-16T03:26:58.358Z,0.00
2018-05-16T03:27:58.502Z,0.00
2018-05-16T03:28:58.639Z,0.00
2018-05-16T03:29:58.782Z,0.00
2018-05-16T03:30:58.926Z,0.00
2018-05-16T03:31:59.070Z,0.00
2018-05-16T03:32:59.197Z,0.00
2018-05-16T03:33:59.335Z,0.00
2018-05-16T03:34:59.481Z,0.00
2018-05-16T03:35:59.623Z,0.00
2018-05-16T03:36:59.764Z,0.00
2018-05-16T03:37:59.902Z,0.00
2018-05-16T03:39:00.045Z,0.00
2018-05-16T03:40:00.177Z,0.00
2018-05-16T03:41:00.317Z,5.63
2018-05-16T03:42:00.456Z,5.63
2018-05-16T03:43:00.591Z,5.63
2018-05-16T03:44:00.728Z,5.63
2018-05-16T03:45:00.870Z,5.63
2018-05-16T03:46:01.012Z,5.63
2018-05-16T03:47:01.149Z,5.63
2018-05-16T03:48:01.287Z,5.63
2018-05-16T03:49:01.423Z,5.63
2018-05-16T03:50:01.568Z,5.63
2018-05-16T03:51:01.715Z,5.63
2018-05-16T03:52:01.884Z,5.63
2018-05-16T03:53:01.995Z,5.63
2018-05-16T03:54:02.132Z,5.63
2018-05-16T03:55:02.276Z,5.63
2018-05-16T03:56:02.409Z,5.63
2018-05-16T03:57:02.548Z,5.63
2018-05-16T03:58:02.724Z,5.63
2018-05-16T03:59:02.863Z,11.25
2018-05-16T04:00:03.015Z,11.25
2018-05-16T04:01:03.156Z,11.25
2018-05-16T04:02:03.294Z,11.25
2018-05-16T04:03:03.429Z,11.25
2018-05-16T04:04:03.562Z,11.25
2018-05-16T04:05:03.703Z,11.25
2018-05-16T04:06:03.842Z,11.25
2018-05-16T04:07:03.978Z,11.25
2018-05-16T04:08:04.125Z,16.88
2018-05-16T04:09:04.255Z,16.88
2018-05-16T04:10:05.005Z,16.88
2018-05-16T04:11:04.547Z,16.88
2018-05-16T04:12:04.686Z,16.88
2018-05-16T04:13:04.818Z,16.88
2018-05-16T04:14:04.965Z,16.88
2018-05-16T04:15:05.096Z,11.25
2018-05-16T04:16:05.235Z,11.25
2018-05-16T04:17:05.375Z,11.25
2018-05-16T04:18:05.512Z,16.88
2018-05-16T04:19:05.663Z,16.88
2018-05-16T04:20:05.805Z,16.88
2018-05-16T04:21:05.943Z,16.88
2018-05-16T04:22:06.104Z,16.88
2018-05-16T04:23:06.249Z,22.50
2018-05-16T04:24:06.399Z,22.50
2018-05-16T04:25:06.532Z,22.50
2018-05-16T04:26:06.685Z,28.13
2018-05-16T04:27:06.814Z,28.13
2018-05-16T04:28:06.960Z,28.13
2018-05-16T04:29:07.088Z,28.13
2018-05-16T04:30:07.261Z,28.13
2018-05-16T04:31:07.394Z,28.13
2018-05-16T04:32:07.538Z,22.50
2018-05-16T04:33:07.702Z,22.50
2018-05-16T04:34:07.835Z,22.50
2018-05-16T04:35:07.976Z,28.13
2018-05-16T04:36:08.112Z,33.75
2018-05-16T04:37:08.281Z,39.38
2018-05-16T04:38:08.414Z,45.00
2018-05-16T04:39:08.558Z,45.00
2018-05-16T04:40:08.693Z,50.63
2018-05-16T04:41:08.846Z,50.63
2018-05-16T04:42:08.983Z,50.63
2018-05-16T04:43:09.126Z,56.25
2018-05-16T04:44:09.283Z,50.63
2018-05-16T04:45:09.418Z,50.63
2018-05-16T04:46:09.556Z,56.25
2018-05-16T04:47:09.709Z,56.25
2018-05-16T04:48:09.870Z,50.63
2018-05-16T04:49:10.001Z,50.63
2018-05-16T04:50:10.143Z,50.63
2018-05-16T04:51:10.282Z,50.63
2018-05-16T04:52:10.430Z,50.63
2018-05-16T04:53:10.561Z,45.00
2018-05-16T04:54:10.701Z,39.38
2018-05-16T04:55:10.862Z,39.38
2018-05-16T04:56:10.993Z,39.38
2018-05-16T04:57:11.126Z,45.00
2018-05-16T04:58:11.271Z,45.00
2018-05-16T04:59:11.440Z,50.63
2018-05-16T05:00:11.575Z,50.63
2018-05-16T05:01:11.717Z,50.63
2018-05-16T05:02:11.856Z,56.25
2018-05-16T05:03:11.998Z,56.25
2018-05-16T05:04:12.132Z,61.88
2018-05-16T05:05:12.272Z,61.88
2018-05-16T05:06:12.407Z,61.88
2018-05-16T05:07:12.576Z,61.88
2018-05-16T05:08:12.716Z,56.25
2018-05-16T05:09:12.862Z,56.25
2018-05-16T05:10:13.002Z,50.63
2018-05-16T05:11:13.159Z,50.63
2018-05-16T05:12:13.294Z,50.63
2018-05-16T05:13:13.437Z,50.63
2018-05-16T05:14:13.577Z,56.25
2018-05-16T05:15:13.739Z,61.88
2018-05-16T05:16:13.877Z,67.50
2018-05-16T05:17:14.019Z,73.13
2018-05-16T05:18:14.268Z,73.13
2018-05-16T05:19:14.317Z,73.13
2018-05-16T05:20:14.452Z,73.13
2018-05-16T05:21:14.601Z,67.50
2018-05-16T05:22:14.733Z,67.50
2018-05-16T05:23:14.873Z,61.88
2018-05-16T05:24:15.019Z,61.88
2018-05-16T05:25:15.192Z,61.88
2018-05-16T05:26:15.327Z,73.13
2018-05-16T05:27:15.479Z,78.75
2018-05-16T05:28:15.610Z,84.38
2018-05-16T05:29:15.774Z,78.75
2018-05-16T05:30:15.932Z,78.75
2018-05-16T05:31:16.053Z,73.13
2018-05-16T05:32:16.195Z,73.13
2018-05-16T05:33:16.356Z,61.88
2018-05-16T05:34:16.501Z,56.25
2018-05-16T05:35:16.633Z,45.00
2018-05-16T05:36:16.833Z,39.38
2018-05-16T05:37:16.877Z,33.75
2018-05-16T05:38:17.010Z,33.75
2018-05-16T05:39:17.149Z,33.75
2018-05-16T05:40:17.287Z,39.38
2018-05-16T05:41:17.450Z,39.38
2018-05-16T05:42:17.588Z,50.63
2018-05-16T05:43:17.721Z,50.63
2018-05-16T05:44:17.860Z,56.25
2018-05-16T05:45:18.006Z,56.25
2018-05-16T05:46:18.144Z,61.88
2018-05-16T05:47:18.279Z,67.50
2018-05-16T05:48:18.416Z,67.50
2018-05-16T05:49:18.636Z,73.13
2018-05-16T05:50:18.723Z,78.75
2018-05-16T05:51:18.865Z,84.38
2018-05-16T05:52:19.011Z,101.25
2018-05-16T05:53:19.166Z,112.50
2018-05-16T05:54:19.295Z,112.50
2018-05-16T05:55:19.437Z,112.50
2018-05-16T05:56:19.607Z,95.63
2018-05-16T05:57:19.745Z,101.25
2018-05-16T05:58:19.885Z,106.88
2018-05-16T05:59:20.055Z,112.50
2018-05-16T06:00:20.191Z,112.50
2018-05-16T06:01:20.327Z,112.50
2018-05-16T06:02:20.534Z,118.13
2018-05-16T06:03:20.621Z,123.75
2018-05-16T06:04:20.757Z,112.50
2018-05-16T06:05:20.981Z,118.13
2018-05-16T06:06:21.147Z,129.38
2018-05-16T06:07:21.187Z,135.00
2018-05-16T06:08:21.322Z,140.63
2018-05-16T06:09:21.486Z,135.00
2018-05-16T06:10:21.623Z,135.00
2018-05-16T06:11:21.766Z,146.25
2018-05-16T06:12:21.909Z,140.63
2018-05-16T06:13:22.060Z,140.63
2018-05-16T06:14:22.193Z,157.50
2018-05-16T06:15:22.336Z,168.75
2018-05-16T06:16:22.482Z,168.75
2018-05-16T06:17:22.643Z,163.13
2018-05-16T06:18:22.787Z,157.50
2018-05-16T06:19:22.930Z,151.88
2018-05-16T06:20:23.091Z,140.63
2018-05-16T06:21:23.219Z,123.75
2018-05-16T06:22:23.360Z,106.88
2018-05-16T06:23:23.497Z,106.88
2018-05-16T06:24:23.658Z,95.63
2018-05-16T06:25:23.793Z,101.25
2018-05-16T06:26:23.940Z,112.50
2018-05-16T06:27:24.254Z,123.75
2018-05-16T06:28:24.227Z,135.00
2018-05-16T06:29:24.356Z,140.63
2018-05-16T06:30:24.496Z,151.88
2018-05-16T06:31:24.637Z,168.75
2018-05-16T06:32:24.796Z,163.13
2018-05-16T06:33:24.925Z,151.88
2018-05-16T06:34:25.072Z,146.25
2018-05-16T06:35:25.236Z,135.00
2018-05-16T06:36:25.372Z,140.63
2018-05-16T06:37:25.518Z,135.00
2018-05-16T06:38:25.656Z,135.00
2018-05-16T06:39:25.808Z,129.38
2018-05-16T06:40:25.942Z,146.25
2018-05-16T06:41:26.090Z,146.25
2018-05-16T06:42:26.228Z,129.38
2018-05-16T06:43:26.368Z,123.75
2018-05-16T06:44:26.516Z,112.50
2018-05-16T06:45:26.654Z,118.13
2018-05-16T06:46:26.791Z,123.75
2018-05-16T06:47:26.982Z,140.63
2018-05-16T06:48:27.119Z,140.63
2018-05-16T06:49:27.255Z,140.63
2018-05-16T06:50:27.399Z,146.25
2018-05-16T06:51:27.536Z,151.88
2018-05-16T06:52:27.677Z,157.50
2018-05-16T06:53:27.815Z,157.50
2018-05-16T06:54:27.951Z,157.50
2018-05-16T06:55:28.091Z,151.88
2018-05-16T06:56:28.289Z,140.63
2018-05-16T06:57:28.387Z,129.38
2018-05-16T06:58:28.506Z,123.75
2018-05-16T06:59:28.711Z,123.75
2018-05-16T07:00:28.745Z,129.38
2018-05-16T07:01:28.880Z,129.38
2018-05-16T07:02:29.020Z,129.38
2018-05-16T07:03:29.156Z,140.63
2018-05-16T07:04:29.301Z,146.25
2018-05-16T07:05:29.441Z,151.88
2018-05-16T07:06:29.579Z,151.88
2018-05-16T07:07:29.717Z,151.88
2018-05-16T07:08:29.857Z,146.25
2018-05-16T07:09:29.993Z,157.50
2018-05-16T07:10:30.135Z,163.13
2018-05-16T07:11:30.282Z,163.13
2018-05-16T07:12:30.425Z,163.13
2018-05-16T07:13:30.584Z,163.13
2018-05-16T07:14:30.706Z,157.50
2018-05-16T07:15:30.839Z,157.50
2018-05-16T07:16:30.996Z,157.50
2018-05-16T07:17:31.123Z,163.13
2018-05-16T07:18:31.255Z,168.75
2018-05-16T07:19:31.394Z,174.38
2018-05-16T07:20:31.536Z,168.75
2018-05-16T07:21:31.672Z,180.00
2018-05-16T07:22:31.824Z,191.25
2018-05-16T07:23:31.952Z,196.88
2018-05-16T07:24:32.094Z,191.25
2018-05-16T07:25:32.237Z,196.88
2018-05-16T07:26:32.381Z,208.13
2018-05-16T07:27:32.517Z,202.50
2018-05-16T07:28:32.686Z,191.25
2018-05-16T07:29:32.829Z,180.00
2018-05-16T07:30:32.974Z,196.88
2018-05-16T07:31:33.146Z,168.75
2018-05-16T07:32:33.338Z,146.25
2018-05-16T07:33:33.416Z,146.25
2018-05-16T07:34:33.553Z,151.88
2018-05-16T07:35:33.697Z,157.50
2018-05-16T07:36:33.834Z,146.25
2018-05-16T07:37:33.972Z,140.63
2018-05-16T07:38:34.116Z,140.63
2018-05-16T07:39:34.255Z,146.25
2018-05-16T07:40:34.403Z,163.13
2018-05-16T07:41:34.540Z,151.88
2018-05-16T07:42:34.677Z,163.13
2018-05-16T07:43:34.829Z,174.38
2018-05-16T07:44:34.964Z,168.75
2018-05-16T07:45:35.105Z,157.50
2018-05-16T07:46:35.264Z,140.63
2018-05-16T07:47:35.426Z,146.25
2018-05-16T07:48:35.563Z,157.50
2018-05-16T07:49:35.701Z,151.88
2018-05-16T07:50:35.840Z,157.50
2018-05-16T07:51:35.987Z,180.00
2018-05-16T07:52:36.128Z,174.38
2018-05-16T07:53:36.266Z,180.00
2018-05-16T07:54:36.486Z,208.13
2018-05-16T07:55:36.547Z,230.63
2018-05-16T07:56:36.685Z,225.00
2018-05-16T07:57:36.827Z,225.00
2018-05-16T07:58:36.970Z,225.00
2018-05-16T07:59:37.108Z,225.00
2018-05-16T08:00:37.244Z,225.00
2018-05-16T08:01:37.383Z,241.88
2018-05-16T08:02:37.518Z,236.25
2018-05-16T08:03:37.660Z,247.50
2018-05-16T08:04:37.809Z,264.38
2018-05-16T08:05:37.942Z,264.38
2018-05-16T08:06:38.081Z,258.75
2018-05-16T08:07:38.227Z,236.25
2018-05-16T08:08:38.365Z,264.38
2018-05-16T08:09:38.512Z,264.38
2018-05-16T08:10:38.655Z,270.00
2018-05-16T08:11:38.875Z,270.00
2018-05-16T08:12:38.995Z,264.38
2018-05-16T08:13:39.069Z,253.13
2018-05-16T08:14:39.215Z,236.25
2018-05-16T08:15:39.354Z,230.63
2018-05-16T08:16:39.494Z,230.63
2018-05-16T08:17:39.638Z,230.63
2018-05-16T08:18:39.776Z,208.13
2018-05-16T08:19:39.917Z,202.50
2018-05-16T08:20:40.063Z,219.38
2018-05-16T08:21:40.207Z,213.75
2018-05-16T08:22:40.343Z,213.75
2018-05-16T08:23:40.497Z,230.63
2018-05-16T08:24:40.698Z,236.25
2018-05-16T08:25:40.795Z,241.88
2018-05-16T08:26:40.937Z,264.38
2018-05-16T08:27:41.079Z,264.38
2018-05-16T08:28:41.236Z,230.63
2018-05-16T08:29:41.374Z,219.38
2018-05-16T08:30:41.516Z,225.00
2018-05-16T08:31:41.653Z,258.75
2018-05-16T08:32:41.804Z,247.50
2018-05-16T08:33:41.937Z,270.00
2018-05-16T08:34:42.079Z,253.13
2018-05-16T08:35:42.247Z,213.75
2018-05-16T08:36:42.451Z,191.25
2018-05-16T08:37:42.511Z,196.88
2018-05-16T08:38:42.657Z,196.88
2018-05-16T08:39:42.821Z,236.25
2018-05-16T08:40:42.961Z,208.13
2018-05-16T08:41:43.105Z,213.75
2018-05-16T08:42:43.249Z,185.63
2018-05-16T08:43:43.413Z,180.00
2018-05-16T08:44:43.546Z,196.88
2018-05-16T08:45:43.684Z,230.63
2018-05-16T08:46:43.827Z,219.38
2018-05-16T08:47:43.980Z,253.13
2018-05-16T08:48:44.125Z,258.75
2018-05-16T08:49:44.265Z,253.13
2018-05-16T08:50:44.407Z,241.88
2018-05-16T08:51:44.659Z,236.25
2018-05-16T08:52:44.616Z,236.25
2018-05-16T08:53:44.776Z,241.88
2018-05-16T08:54:44.911Z,253.13
2018-05-16T08:55:45.059Z,247.50
2018-05-16T08:56:45.199Z,247.50
2018-05-16T08:57:45.349Z,247.50
2018-05-16T08:58:45.499Z,253.13
2018-05-16T08:59:45.670Z,247.50
2018-05-16T09:00:45.806Z,241.88
2018-05-16T09:01:45.948Z,264.38
2018-05-16T09:02:46.112Z,253.13
2018-05-16T09:03:46.248Z,281.25
2018-05-16T09:04:46.388Z,286.88
2018-05-16T09:05:46.532Z,281.25
2018-05-16T09:06:46.771Z,281.25
2018-05-16T09:07:46.758Z,281.25
2018-05-16T09:08:46.901Z,253.13
2018-05-16T09:09:47.031Z,219.38
2018-05-16T09:10:47.184Z,236.25
2018-05-16T09:11:47.320Z,258.75
2018-05-16T09:12:47.466Z,258.75
2018-05-16T09:13:47.616Z,253.13
2018-05-16T09:14:47.761Z,253.13
2018-05-16T09:15:47.903Z,253.13
2018-05-16T09:16:48.042Z,253.13
2018-05-16T09:17:48.208Z,247.50
2018-05-16T09:18:48.344Z,225.00
2018-05-16T09:19:48.485Z,241.88
2018-05-16T09:20:48.633Z,236.25
2018-05-16T09:21:48.774Z,230.63
2018-05-16T09:22:48.908Z,230.63
2018-05-16T09:23:49.051Z,230.63
2018-05-16T09:24:49.222Z,241.88
2018-05-16T09:25:49.342Z,247.50
2018-05-16T09:26:49.482Z,253.13
2018-05-16T09:27:49.626Z,258.75
2018-05-16T09:28:49.791Z,258.75
2018-05-16T09:29:49.933Z,270.00
2018-05-16T09:30:50.072Z,270.00
2018-05-16T09:31:50.235Z,258.75
2018-05-16T09:32:50.393Z,275.63
2018-05-16T09:33:50.517Z,275.63
2018-05-16T09:34:50.662Z,281.25
2018-05-16T09:35:50.863Z,281.25
2018-05-16T09:36:50.977Z,247.50
2018-05-16T09:37:51.113Z,270.00
2018-05-16T09:38:51.250Z,270.00
2018-05-16T09:39:51.389Z,275.63
2018-05-16T09:40:51.521Z,281.25
2018-05-16T09:41:51.666Z,281.25
2018-05-16T09:42:51.828Z,275.63
2018-05-16T09:43:51.969Z,286.88
2018-05-16T09:44:52.111Z,286.88
2018-05-16T09:45:52.315Z,281.25
2018-05-16T09:46:52.423Z,281.25
2018-05-16T09:47:52.559Z,286.88
2018-05-16T09:48:52.734Z,275.63
2018-05-16T09:49:52.868Z,286.88
2018-05-16T09:50:53.013Z,286.88
2018-05-16T09:51:53.146Z,292.50
2018-05-16T09:52:53.288Z,298.13
2018-05-16T09:53:53.436Z,292.50
2018-05-16T09:54:53.608Z,303.75
2018-05-16T09:55:53.747Z,303.75
2018-05-16T09:56:53.894Z,303.75
2018-05-16T09:57:54.039Z,309.38
2018-05-16T09:58:54.205Z,315.00
2018-05-16T09:59:54.315Z,315.00
2018-05-16T10:00:54.458Z,286.88
2018-05-16T10:01:54.601Z,286.88
2018-05-16T10:02:54.794Z,281.25
2018-05-16T10:03:54.879Z,298.13
2018-05-16T10:04:55.014Z,315.00
2018-05-16T10:05:55.161Z,320.63
2018-05-16T10:06:55.311Z,298.13
2018-05-16T10:07:55.448Z,326.25
2018-05-16T10:08:55.591Z,320.63
2018-05-16T10:09:55.757Z,309.38
2018-05-16T10:10:55.881Z,309.38
2018-05-16T10:11:56.021Z,303.75
2018-05-16T10:12:56.165Z,303.75
2018-05-16T10:13:56.326Z,298.13
2018-05-16T10:14:56.460Z,309.38
2018-05-16T10:15:56.604Z,315.00
2018-05-16T10:16:56.758Z,320.63
2018-05-16T10:17:56.916Z,320.63
2018-05-16T10:18:57.057Z,320.63
2018-05-16T10:19:57.195Z,320.63
2018-05-16T10:20:57.370Z,303.75
2018-05-16T10:21:57.513Z,320.63
2018-05-16T10:22:58.080Z,326.25
2018-05-16T10:23:57.816Z,320.63
2018-05-16T10:24:57.944Z,315.00
2018-05-16T10:25:58.537Z,331.88
2018-05-16T10:26:58.208Z,343.13
2018-05-16T10:27:59.571Z,343.13
2018-05-16T10:28:58.498Z,348.75
2018-05-16T10:29:58.628Z,331.88
2018-05-16T10:30:58.782Z,337.50
2018-05-16T10:31:58.921Z,337.50
2018-05-16T10:32:59.066Z,331.88
2018-05-16T10:33:59.217Z,348.75
2018-05-16T10:34:59.361Z,371.25
2018-05-16T10:35:59.502Z,382.50
2018-05-16T10:37:00.776Z,382.50
2018-05-16T10:37:59.772Z,376.88
2018-05-16T10:38:59.918Z,382.50
2018-05-16T10:40:00.057Z,393.75
2018-05-16T10:41:00.221Z,388.13
2018-05-16T10:42:00.368Z,399.38
2018-05-16T10:43:00.538Z,388.13
2018-05-16T10:44:00.680Z,405.00
2018-05-16T10:45:00.827Z,399.38
2018-05-16T10:46:00.987Z,393.75
2018-05-16T10:47:01.119Z,388.13
2018-05-16T10:48:01.268Z,343.13
2018-05-16T10:49:01.414Z,326.25
2018-05-16T10:50:01.555Z,326.25
2018-05-16T10:51:01.698Z,303.75
2018-05-16T10:52:01.838Z,292.50
2018-05-16T10:53:01.976Z,298.13
2018-05-16T10:54:02.141Z,281.25
2018-05-16T10:55:02.286Z,275.63
2018-05-16T10:56:02.428Z,281.25
2018-05-16T10:57:02.571Z,326.25
2018-05-16T10:58:03.623Z,326.25
2018-05-16T10:59:02.794Z,371.25
2018-05-16T11:00:02.936Z,331.88
2018-05-16T11:01:03.077Z,337.50
2018-05-16T11:02:03.223Z,326.25
2018-05-16T11:03:03.370Z,309.38
2018-05-16T11:04:03.513Z,281.25
2018-05-16T11:05:03.664Z,258.75
2018-05-16T11:06:03.799Z,236.25
2018-05-16T11:07:03.943Z,213.75
2018-05-16T11:08:04.083Z,191.25
2018-05-16T11:09:04.233Z,180.00
2018-05-16T11:10:04.382Z,174.38
2018-05-16T11:11:04.531Z,174.38
2018-05-16T11:12:04.679Z,174.38
2018-05-16T11:13:04.816Z,168.75
2018-05-16T11:14:04.955Z,163.13
2018-05-16T11:15:05.098Z,151.88
2018-05-16T11:16:05.252Z,129.38
2018-05-16T11:17:05.396Z,146.25
2018-05-16T11:18:05.540Z,151.88
2018-05-16T11:19:05.676Z,163.13
2018-05-16T11:20:05.822Z,168.75
2018-05-16T11:21:05.953Z,168.75
2018-05-16T11:22:06.093Z,168.75
2018-05-16T11:23:06.236Z,168.75
2018-05-16T11:24:06.385Z,163.13
2018-05-16T11:25:06.543Z,163.13
2018-05-16T11:26:06.679Z,163.13
2018-05-16T11:27:06.823Z,163.13
2018-05-16T11:28:06.966Z,157.50
2018-05-16T11:29:07.129Z,157.50
2018-05-16T11:30:07.273Z,151.88
2018-05-16T11:31:07.417Z,129.38
2018-05-16T11:32:07.565Z,118.13
2018-05-16T11:33:07.714Z,106.88
2018-05-16T11:34:07.853Z,101.25
2018-05-16T11:35:08.009Z,101.25
2018-05-16T11:36:08.151Z,101.25
2018-05-16T11:37:08.342Z,106.88
2018-05-16T11:38:08.451Z,106.88
2018-05-16T11:39:08.591Z,118.13
2018-05-16T11:40:08.731Z,129.38
2018-05-16T11:41:08.908Z,135.00
2018-05-16T11:42:09.037Z,140.63
2018-05-16T11:43:09.176Z,146.25
2018-05-16T11:44:09.317Z,146.25
2018-05-16T11:45:09.465Z,151.88
2018-05-16T11:46:09.603Z,151.88
2018-05-16T11:47:09.746Z,157.50
2018-05-16T11:48:09.896Z,157.50
2018-05-16T11:49:10.033Z,157.50
2018-05-16T11:50:10.177Z,163.13
2018-05-16T11:51:10.321Z,168.75
2018-05-16T11:52:10.489Z,180.00
2018-05-16T11:53:10.676Z,185.63
2018-05-16T11:54:10.770Z,191.25
2018-05-16T11:55:10.934Z,196.88
2018-05-16T11:56:11.091Z,202.50
2018-05-16T11:57:11.213Z,196.88
2018-05-16T11:58:11.360Z,191.25
2018-05-16T11:59:11.561Z,191.25
2018-05-16T12:00:11.672Z,196.88
2018-05-16T12:01:11.813Z,202.50
2018-05-16T12:02:11.954Z,208.13
2018-05-16T12:03:12.123Z,208.13
2018-05-16T12:04:12.261Z,208.13
2018-05-16T12:05:12.430Z,219.38
2018-05-16T12:06:12.543Z,225.00
2018-05-16T12:07:12.697Z,196.88
2018-05-16T12:08:12.842Z,258.75
2018-05-16T12:09:13.041Z,270.00
2018-05-16T12:10:13.167Z,286.88
2018-05-16T12:11:13.295Z,281.25
2018-05-16T12:12:13.441Z,253.13
2018-05-16T12:13:13.598Z,241.88
2018-05-16T12:14:13.732Z,241.88
2018-05-16T12:15:13.872Z,247.50
2018-05-16T12:16:14.019Z,258.75
2018-05-16T12:17:14.189Z,275.63
2018-05-16T12:18:14.332Z,286.88
2018-05-16T12:19:14.473Z,281.25
2018-05-16T12:20:14.614Z,275.63
2018-05-16T12:21:14.783Z,264.38
2018-05-16T12:22:14.916Z,270.00
2018-05-16T12:23:15.063Z,270.00
2018-05-16T12:24:15.226Z,298.13
2018-05-16T12:25:15.366Z,292.50
2018-05-16T12:26:15.509Z,270.00
2018-05-16T12:27:15.652Z,241.88
2018-05-16T12:28:15.801Z,208.13
2018-05-16T12:29:16.000Z,191.25
2018-05-16T12:30:16.084Z,180.00
2018-05-16T12:31:16.243Z,151.88
2018-05-16T12:32:16.385Z,118.13
2018-05-16T12:33:16.529Z,90.00
2018-05-16T12:34:16.691Z,73.13
2018-05-16T12:35:16.835Z,56.25
2018-05-16T12:36:16.972Z,39.38
2018-05-16T12:37:17.119Z,28.13
2018-05-16T12:38:17.284Z,28.13
2018-05-16T12:39:17.400Z,22.50
2018-05-16T12:40:17.541Z,22.50
2018-05-16T12:41:17.692Z,28.13
2018-05-16T12:42:17.882Z,28.13
2018-05-16T12:43:18.019Z,28.13
2018-05-16T12:44:18.162Z,28.13
2018-05-16T12:45:18.305Z,28.13
2018-05-16T12:46:18.535Z,33.75
2018-05-16T12:47:18.592Z,33.75
2018-05-16T12:48:18.741Z,39.38
2018-05-16T12:49:18.971Z,39.38